createdAt,value
2022-08-23T00:01:44.863Z,96.48
2022-08-23T00:05:43.822Z,97.03
2022-08-23T00:09:41.125Z,96.67
2022-08-23T00:13:47.444Z,97.10
2022-08-23T00:17:45.429Z,96.79
2022-08-23T00:21:44.157Z,97.16
2022-08-23T00:25:42.613Z,98.28
2022-08-23T00:29:47.453Z,98.90
2022-08-23T00:33:44.766Z,99.85
2022-08-23T00:37:41.977Z,100.00
2022-08-23T00:41:40.132Z,100.00
2022-08-23T00:46:09.619Z,100.00
2022-08-23T00:50:23.838Z,100.00
2022-08-23T00:54:25.267Z,100.00
2022-08-23T00:58:23.201Z,100.00
2022-08-23T01:02:20.400Z,100.00
2022-08-23T01:06:38.741Z,100.00
2022-08-23T01:10:57.098Z,100.00
2022-08-23T01:15:17.579Z,100.00
2022-08-23T01:19:27.461Z,100.00
2022-08-23T01:23:56.508Z,100.00
2022-08-23T01:27:53.750Z,100.00
2022-08-23T01:31:51.037Z,100.00
2022-08-23T01:35:55.341Z,100.00
2022-08-23T01:39:53.400Z,100.00
2022-08-23T01:43:50.527Z,100.00
2022-08-23T01:47:49.242Z,100.00
2022-08-23T01:51:47.278Z,100.00
2022-08-23T01:55:44.465Z,100.00
2022-08-23T01:59:43.918Z,100.00
2022-08-23T02:03:41.382Z,100.00
2022-08-23T02:07:38.789Z,100.00
2022-08-23T02:11:42.625Z,100.00
2022-08-23T02:15:47.054Z,99.92
2022-08-23T02:19:45.317Z,100.00
2022-08-23T02:23:42.748Z,100.00
2022-08-23T02:27:42.967Z,100.00
2022-08-23T02:31:44.497Z,100.00
2022-08-23T02:35:41.937Z,100.00
2022-08-23T02:39:40.143Z,100.00
2022-08-23T02:43:40.964Z,100.00
2022-08-23T02:47:39.252Z,100.00
2022-08-23T02:51:45.737Z,100.00
2022-08-23T02:55:47.796Z,100.00
2022-08-23T02:59:44.908Z,100.00
2022-08-23T03:03:43.075Z,100.00
2022-08-23T03:07:40.889Z,100.00
2022-08-23T03:11:45.055Z,100.00
2022-08-23T03:15:43.458Z,100.00
2022-08-23T03:19:40.693Z,100.00
2022-08-23T03:23:40.575Z,100.00
2022-08-23T03:27:38.452Z,100.00
2022-08-23T03:31:42.869Z,100.00
2022-08-23T03:35:42.950Z,100.00
2022-08-23T03:39:42.102Z,100.00
2022-08-23T03:43:39.992Z,100.00
2022-08-23T03:47:38.139Z,100.00
2022-08-23T03:51:35.823Z,100.00
2022-08-23T03:55:33.655Z,100.00
2022-08-23T03:59:42.797Z,100.00
2022-08-23T04:03:41.545Z,100.00
2022-08-23T04:07:40.263Z,100.00
2022-08-23T04:11:38.330Z,100.00
2022-08-23T04:15:37.364Z,100.00
2022-08-23T04:19:36.235Z,100.00
2022-08-23T04:23:36.803Z,100.00
2022-08-23T04:27:33.895Z,100.00
2022-08-23T04:31:34.553Z,100.00
2022-08-23T04:35:35.325Z,100.00
2022-08-23T04:39:53.929Z,100.00
2022-08-23T04:43:51.813Z,100.00
2022-08-23T04:47:48.910Z,100.00
2022-08-23T04:51:52.791Z,100.00
2022-08-23T04:55:52.672Z,100.00
2022-08-23T04:59:50.183Z,100.00
2022-08-23T05:03:47.406Z,100.00
2022-08-23T05:07:44.630Z,100.00
2022-08-23T05:11:41.739Z,100.00
2022-08-23T05:15:39.154Z,100.00
2022-08-23T05:19:37.505Z,100.00
2022-08-23T05:23:41.702Z,100.00
2022-08-23T05:27:45.765Z,100.00
2022-08-23T05:31:43.064Z,100.00
2022-08-23T05:35:45.554Z,100.00
2022-08-23T05:39:43.231Z,100.00
2022-08-23T05:43:41.033Z,100.00
2022-08-23T05:47:38.157Z,100.00
2022-08-23T05:51:51.914Z,99.94
2022-08-23T05:55:50.927Z,99.70
2022-08-23T05:59:50.022Z,98.76
2022-08-23T06:03:47.832Z,98.07
2022-08-23T06:07:45.520Z,99.44
2022-08-23T06:11:48.249Z,100.00
2022-08-23T06:15:46.265Z,100.00
2022-08-23T06:19:43.401Z,100.00
2022-08-23T06:23:56.685Z,99.94
2022-08-23T06:27:53.795Z,99.53
2022-08-23T06:31:52.979Z,98.86
2022-08-23T06:36:07.199Z,98.69
2022-08-23T06:40:27.777Z,97.18
2022-08-23T06:44:49.236Z,95.96
2022-08-23T06:49:00.799Z,96.00
2022-08-23T06:52:58.072Z,93.48
2022-08-23T06:57:13.607Z,91.98
2022-08-23T07:01:45.127Z,89.03
2022-08-23T07:05:49.876Z,86.95
2022-08-23T07:09:57.053Z,86.24
2022-08-23T07:13:55.359Z,86.85
2022-08-23T07:17:52.487Z,85.24
2022-08-23T07:21:50.746Z,83.62
2022-08-23T07:25:47.810Z,83.38
2022-08-23T07:29:48.509Z,79.85
2022-08-23T07:33:46.707Z,77.69
2022-08-23T07:37:47.952Z,77.46
2022-08-23T07:41:46.992Z,76.87
2022-08-23T07:45:49.210Z,76.71
2022-08-23T07:49:47.133Z,75.63
2022-08-23T07:53:46.305Z,74.54
2022-08-23T07:57:45.515Z,73.20
2022-08-23T08:02:06.774Z,69.24
2022-08-23T08:06:30.754Z,67.08
2022-08-23T08:10:32.424Z,62.64
2022-08-23T08:14:29.624Z,58.96
2022-08-23T08:18:29.182Z,54.75
2022-08-23T08:22:48.553Z,54.15
2022-08-23T08:27:02.779Z,52.11
2022-08-23T08:31:00.030Z,48.89
2022-08-23T08:34:57.118Z,48.37
2022-08-23T08:38:58.733Z,47.99
2022-08-23T08:43:28.725Z,44.64
2022-08-23T08:47:57.062Z,44.16
2022-08-23T08:52:10.447Z,43.33
2022-08-23T08:56:25.195Z,43.62
2022-08-23T09:00:47.169Z,41.79
2022-08-23T09:04:46.555Z,39.23
2022-08-23T09:08:55.445Z,39.32
2022-08-23T09:13:32.564Z,37.49
2022-08-23T09:18:07.507Z,38.21
2022-08-23T09:22:24.194Z,38.01
2022-08-23T09:26:30.395Z,34.59
2022-08-23T09:30:49.503Z,36.25
2022-08-23T09:34:47.049Z,34.22
2022-08-23T09:39:07.773Z,32.95
2022-08-23T09:43:20.578Z,32.00
2022-08-23T09:47:17.707Z,31.70
2022-08-23T09:51:36.056Z,31.28
2022-08-23T09:55:42.963Z,31.41
2022-08-23T09:59:47.658Z,30.67
2022-08-23T10:04:13.948Z,30.66
2022-08-23T10:08:28.750Z,29.62
2022-08-23T10:12:29.120Z,30.23
2022-08-23T10:16:48.573Z,30.25
2022-08-23T10:21:03.145Z,31.06
2022-08-23T10:25:30.931Z,30.91
2022-08-23T10:29:42.433Z,29.63
2022-08-23T10:34:30.454Z,31.88
2022-08-23T10:38:46.987Z,30.62
2022-08-23T10:43:02.294Z,28.13
2022-08-23T10:47:30.755Z,28.91
2022-08-23T10:51:33.141Z,29.31
2022-08-23T10:55:44.478Z,29.72
2022-08-23T10:59:45.672Z,28.45
2022-08-23T11:04:04.811Z,28.34
2022-08-23T11:08:47.455Z,29.35
2022-08-23T11:13:19.504Z,27.45
2022-08-23T11:17:29.904Z,25.90
2022-08-23T11:21:31.715Z,25.41
2022-08-23T11:25:33.483Z,25.04
2022-08-23T11:29:32.854Z,23.78
2022-08-23T11:34:19.720Z,22.44
2022-08-23T11:38:48.716Z,21.46
2022-08-23T11:42:53.184Z,21.15
2022-08-23T11:46:50.747Z,22.24
2022-08-23T11:50:59.893Z,21.26
2022-08-23T11:55:42.402Z,22.07
2022-08-23T12:00:17.576Z,21.50
2022-08-23T12:04:45.843Z,20.53
2022-08-23T12:09:02.180Z,20.76
2022-08-23T12:13:18.137Z,19.28
2022-08-23T12:17:28.705Z,20.56
2022-08-23T12:21:52.219Z,19.75
2022-08-23T12:26:09.559Z,20.36
2022-08-23T12:30:10.951Z,19.66
2022-08-23T12:34:08.025Z,20.33
2022-08-23T12:38:21.519Z,21.57
2022-08-23T12:42:37.551Z,23.07
2022-08-23T12:46:44.488Z,21.66
2022-08-23T12:50:45.359Z,20.44
2022-08-23T12:54:50.301Z,22.18
2022-08-23T12:58:54.600Z,23.30
2022-08-23T13:03:05.962Z,21.77
2022-08-23T13:07:12.249Z,21.33
2022-08-23T13:11:14.927Z,22.00
2022-08-23T13:15:12.163Z,22.23
2022-08-23T13:19:30.822Z,22.58
2022-08-23T13:23:30.324Z,22.49
2022-08-23T13:27:36.542Z,23.71
2022-08-23T13:32:05.848Z,23.64
2022-08-23T13:36:15.976Z,23.48
2022-08-23T13:40:25.474Z,23.45
2022-08-23T13:44:23.310Z,23.80
2022-08-23T13:48:32.108Z,23.72
2022-08-23T13:56:56.544Z,23.20
2022-08-23T14:00:55.581Z,24.53
2022-08-23T14:04:53.258Z,27.59
2022-08-23T14:08:52.835Z,27.46
2022-08-23T14:12:54.730Z,26.59
2022-08-23T14:16:54.505Z,25.66
2022-08-23T14:20:51.692Z,25.54
2022-08-23T14:24:48.915Z,28.30
2022-08-23T14:28:47.005Z,30.36
2022-08-23T14:32:48.667Z,29.36
2022-08-23T14:41:17.069Z,28.11
2022-08-23T14:45:18.082Z,27.67
2022-08-23T14:49:15.649Z,26.92
2022-08-23T14:53:17.900Z,25.41
2022-08-23T14:57:15.017Z,26.78
2022-08-23T15:01:13.082Z,26.12
2022-08-23T15:05:12.084Z,27.06
2022-08-23T15:09:09.158Z,26.14
2022-08-23T15:13:32.401Z,26.74
2022-08-23T15:17:30.336Z,26.47
2022-08-23T15:21:28.643Z,26.57
2022-08-23T15:25:29.837Z,25.39
2022-08-23T15:29:27.946Z,25.82
2022-08-23T15:33:27.090Z,25.40
2022-08-23T15:37:27.882Z,25.04
2022-08-23T15:41:24.953Z,25.57
2022-08-23T15:45:22.614Z,24.39
2022-08-23T15:49:19.906Z,25.00
2022-08-23T15:53:20.783Z,25.33
2022-08-23T15:57:24.964Z,24.12
2022-08-23T16:01:25.789Z,24.33
2022-08-23T16:05:23.150Z,24.69
2022-08-23T16:09:25.722Z,24.28
2022-08-23T16:13:27.023Z,23.90
2022-08-23T16:17:25.672Z,25.15
2022-08-23T16:21:26.418Z,26.05
2022-08-23T16:25:24.792Z,25.70
2022-08-23T16:29:22.843Z,25.86
2022-08-23T16:33:19.856Z,25.07
2022-08-23T16:37:16.941Z,26.19
2022-08-23T16:41:14.450Z,26.33
2022-08-23T16:45:12.217Z,26.05
2022-08-23T16:49:16.412Z,26.69
2022-08-23T16:53:13.564Z,28.04
2022-08-23T16:57:10.606Z,28.52
2022-08-23T17:01:14.070Z,30.20
2022-08-23T17:05:15.567Z,30.59
2022-08-23T17:09:13.662Z,31.45
2022-08-23T17:13:14.021Z,32.09
2022-08-23T17:17:12.907Z,32.67
2022-08-23T17:21:10.128Z,34.07
2022-08-23T17:25:09.820Z,34.00
2022-08-23T17:29:07.493Z,35.77
2022-08-23T17:33:05.360Z,38.34
2022-08-23T17:37:02.685Z,38.90
2022-08-23T17:41:00.275Z,39.77
2022-08-23T17:44:57.835Z,41.90
2022-08-23T17:48:54.939Z,42.92
2022-08-23T17:52:52.030Z,44.47
2022-08-23T17:56:50.659Z,45.13
2022-08-23T18:00:48.027Z,45.49
2022-08-23T18:04:45.254Z,46.08
2022-08-23T18:08:42.326Z,47.24
2022-08-23T18:12:40.865Z,48.14
2022-08-23T18:16:38.705Z,49.58
2022-08-23T18:20:37.135Z,52.38
2022-08-23T18:24:34.344Z,53.21
2022-08-23T18:28:31.407Z,54.81
2022-08-23T18:32:28.857Z,56.26
2022-08-23T18:36:26.564Z,57.63
2022-08-23T18:40:25.748Z,57.02
2022-08-23T18:44:23.219Z,58.52
2022-08-23T18:48:22.269Z,59.95
2022-08-23T18:52:19.392Z,60.46
2022-08-23T18:56:16.623Z,60.78
2022-08-23T19:00:14.004Z,60.29
2022-08-23T19:04:13.840Z,60.50
2022-08-23T19:08:13.438Z,61.68
2022-08-23T19:12:10.632Z,63.29
2022-08-23T19:16:13.387Z,62.51
2022-08-23T19:20:11.657Z,64.23
2022-08-23T19:24:08.724Z,63.40
2022-08-23T19:28:06.247Z,63.52
2022-08-23T19:32:04.367Z,64.33
2022-08-23T19:36:02.846Z,64.20
2022-08-23T19:40:00.176Z,64.22
2022-08-23T19:43:58.464Z,64.07
2022-08-23T19:47:59.650Z,63.75
2022-08-23T19:51:57.356Z,65.39
2022-08-23T19:55:54.465Z,66.18
2022-08-23T19:59:51.602Z,67.03
2022-08-23T20:03:48.723Z,68.04
2022-08-23T20:07:46.648Z,68.11
2022-08-23T20:11:43.989Z,68.41
2022-08-23T20:15:41.071Z,69.93
2022-08-23T20:19:38.626Z,70.23
2022-08-23T20:23:54.689Z,70.88
2022-08-23T20:27:52.518Z,70.78
2022-08-23T20:31:52.061Z,71.73
2022-08-23T20:35:49.170Z,71.95
2022-08-23T20:39:46.497Z,71.99
2022-08-23T20:43:48.776Z,71.93
2022-08-23T20:47:45.827Z,72.30
2022-08-23T20:51:42.987Z,72.75
2022-08-23T20:55:40.226Z,74.13
2022-08-23T20:59:40.956Z,73.85
2022-08-23T21:03:40.988Z,74.85
2022-08-23T21:07:38.020Z,75.11
2022-08-23T21:11:35.137Z,75.90
2022-08-23T21:15:32.262Z,76.62
2022-08-23T21:19:30.200Z,77.24
2022-08-23T21:23:27.378Z,77.14
2022-08-23T21:27:24.398Z,77.60
2022-08-23T21:31:24.760Z,78.38
2022-08-23T21:35:24.059Z,77.94
2022-08-23T21:39:21.230Z,78.66
2022-08-23T21:43:18.225Z,78.72
2022-08-23T21:47:15.947Z,79.42
2022-08-23T21:51:13.099Z,79.40
2022-08-23T21:55:10.655Z,80.43
2022-08-23T21:59:13.484Z,79.04
2022-08-23T22:03:12.818Z,78.90
2022-08-23T22:07:09.950Z,79.24
2022-08-23T22:11:07.509Z,79.92
2022-08-23T22:15:06.490Z,80.01
2022-08-23T22:19:05.208Z,80.71
2022-08-23T22:23:02.663Z,81.29
2022-08-23T22:26:59.899Z,81.19
2022-08-23T22:31:00.803Z,81.62
2022-08-23T22:34:58.959Z,81.97
2022-08-23T22:38:56.794Z,80.86
2022-08-23T22:42:53.807Z,81.78
2022-08-23T22:46:51.438Z,81.17
2022-08-23T22:50:49.727Z,80.86
2022-08-23T22:54:47.193Z,80.74
2022-08-23T22:58:45.127Z,81.57
2022-08-23T23:02:44.953Z,80.32
2022-08-23T23:06:42.661Z,80.96
2022-08-23T23:10:39.652Z,81.39
2022-08-23T23:14:36.691Z,82.41
2022-08-23T23:18:34.911Z,82.54
2022-08-23T23:22:31.899Z,82.55
2022-08-23T23:26:29.641Z,83.06
2022-08-23T23:30:26.720Z,84.31
2022-08-23T23:34:26.016Z,84.50
2022-08-23T23:38:23.031Z,85.16
2022-08-23T23:42:20.023Z,85.73
2022-08-23T23:46:20.182Z,85.66
2022-08-23T23:50:17.649Z,86.47
2022-08-23T23:54:14.766Z,86.26
2022-08-23T23:58:12.085Z,87.02
